createdAt,value
2019-01-20T00:08:15.901Z,12.3
2019-01-20T00:18:15.108Z,12.2
2019-01-20T00:28:14.326Z,12.2
2019-01-20T00:38:13.526Z,12.1
2019-01-20T00:48:12.736Z,12.1
2019-01-20T00:58:11.943Z,12.2
2019-01-20T01:08:11.153Z,12.1
2019-01-20T01:18:10.363Z,12.1
2019-01-20T01:28:09.572Z,12.1
2019-01-20T01:38:08.779Z,12.1
2019-01-20T01:48:07.986Z,12.1
2019-01-20T01:58:07.195Z,12.1
2019-01-20T02:08:06.405Z,12.1
2019-01-20T02:18:05.613Z,12.1
2019-01-20T02:28:04.818Z,12.1
2019-01-20T02:38:04.028Z,12.1
2019-01-20T02:48:03.240Z,12.1
2019-01-20T02:58:02.442Z,12
2019-01-20T03:08:01.651Z,12
2019-01-20T03:18:00.858Z,12
2019-01-20T03:28:00.065Z,12
2019-01-20T03:37:59.272Z,12
2019-01-20T03:47:58.481Z,12
2019-01-20T03:57:57.689Z,11.9
2019-01-20T04:07:56.893Z,11.9
2019-01-20T04:17:56.100Z,11.9
2019-01-20T04:27:55.307Z,12
2019-01-20T04:37:54.513Z,11.9
2019-01-20T04:47:53.718Z,11.9
2019-01-20T04:57:52.924Z,11.9
2019-01-20T05:07:52.131Z,11.9
2019-01-20T05:17:51.338Z,12.1
2019-01-20T05:27:50.550Z,11.9
2019-01-20T05:37:49.763Z,12
2019-01-20T05:47:48.975Z,11.9
2019-01-20T05:57:48.182Z,11.9
2019-01-20T06:07:47.394Z,11.9
2019-01-20T06:17:46.604Z,11.5
2019-01-20T06:27:45.809Z,10.9
2019-01-20T06:37:45.016Z,10.9
2019-01-20T06:47:44.236Z,10.6
2019-01-20T06:57:43.435Z,10.6
2019-01-20T07:07:42.644Z,10.6
2019-01-20T07:17:41.854Z,10.6
2019-01-20T07:27:41.068Z,10.7
2019-01-20T07:37:40.277Z,10.7
2019-01-20T07:47:39.487Z,10.8
2019-01-20T07:57:38.696Z,10.9
2019-01-20T08:07:37.907Z,10.9
2019-01-20T08:17:37.120Z,11.1
2019-01-20T08:27:36.332Z,11.2
2019-01-20T08:37:35.545Z,11.3
2019-01-20T08:47:34.753Z,11.4
2019-01-20T08:57:33.975Z,11.4
2019-01-20T09:07:33.190Z,11.4
2019-01-20T09:17:32.399Z,11.5
2019-01-20T09:27:31.617Z,11.6
2019-01-20T09:37:30.827Z,11.8
2019-01-20T09:47:30.039Z,11.9
2019-01-20T09:57:29.250Z,12.1
2019-01-20T10:07:28.496Z,12.4
2019-01-20T10:17:27.680Z,12.6
2019-01-20T10:27:26.892Z,12.9
2019-01-20T10:37:26.106Z,13.2
2019-01-20T10:47:25.322Z,13.3
2019-01-20T10:57:24.541Z,13.6
2019-01-20T11:07:23.762Z,13.9
2019-01-20T11:17:22.983Z,14.4
2019-01-20T11:27:22.207Z,14.7
2019-01-20T11:37:21.414Z,15.1
2019-01-20T11:47:20.630Z,15.4
2019-01-20T11:57:19.935Z,15.7
2019-01-20T12:07:19.064Z,15.9
2019-01-20T12:17:18.278Z,16.1
2019-01-20T12:27:17.491Z,16.3
2019-01-20T12:37:16.702Z,16.4
2019-01-20T12:47:15.912Z,16.4
2019-01-20T12:57:15.123Z,16.5
2019-01-20T13:07:14.331Z,16.6
2019-01-20T13:17:13.541Z,16.6
2019-01-20T13:27:12.750Z,16.7
2019-01-20T13:37:11.958Z,16.7
2019-01-20T13:47:11.167Z,16.8
2019-01-20T13:57:10.375Z,16.8
2019-01-20T14:07:09.585Z,16.8
2019-01-20T14:17:08.795Z,16.8
2019-01-20T14:27:08.004Z,16.8
2019-01-20T14:37:08.074Z,16.8
2019-01-20T14:47:06.435Z,16.5
2019-01-20T14:57:05.651Z,16.6
2019-01-20T15:07:04.871Z,16.3
2019-01-20T15:17:04.089Z,15.6
2019-01-20T15:27:03.308Z,15.3
2019-01-20T15:37:02.527Z,15.4
2019-01-20T15:47:01.743Z,15.3
2019-01-20T15:57:00.960Z,15.3
2019-01-20T16:07:00.184Z,15
2019-01-20T16:16:59.398Z,14.7
2019-01-20T16:27:00.971Z,14.8
2019-01-20T16:36:57.843Z,14.5
2019-01-20T16:46:57.057Z,13.6
2019-01-20T16:56:56.277Z,13.1
2019-01-20T17:06:55.500Z,13.3
2019-01-20T17:16:54.792Z,12.9
2019-01-20T17:26:54.038Z,12.6
2019-01-20T17:36:53.159Z,12.4
2019-01-20T17:46:52.406Z,12.5
2019-01-20T17:56:51.595Z,11.9
2019-01-20T18:06:50.841Z,11.9
2019-01-20T18:16:50.029Z,11.9
2019-01-20T18:26:49.273Z,12
2019-01-20T18:36:48.462Z,11.9
2019-01-20T18:46:47.678Z,11.9
2019-01-20T18:56:46.917Z,11.8
2019-01-20T19:06:46.112Z,11.7
